Aeroporto :
LOGIN :

Iscrizione | Disclaimer

   EN    FR    IT 

 










Sommario :    VFR   VFR Marginale   IFR   IFR Intensivo   IFR Molto Intensivo
Visibilità : 
Base nubi : 
>= 8 km
>= 3000ft
5 / 8 km
1000 / 3000 ft
1500m / 5 km
500 / 1000 ft
800 / 1500m
200 / 500 ft
< 800m
< 200 ft
Simboli :   Temporali  Nebbia  Neve Forte  Precipitazioni Forti  Vento > 20 kt
SIGMETs :   Varie  Temporali  Ghiacco  Turbolenza  Onda orograficha  Ceneri Vulcaniche







- Altitudine del aeroporto : 14 ft
- Codice IATA : BRE


EDDW - Bremen Neuenland

ULTIMO METAR :
  • 220520Z 08003KT 1200 0500W R27/1100VP2000D BCFG FEW006 05/05 Q1032 TEMPO 0500 FG

METARs OBSOLETI :
  • 220450Z 13002KT 1300 0600W R27/0325V0500N BCFG SCT006 06/05 Q1032 TEMPO 0500 FG
  • 220420Z 14001KT 1800 0800W R27/0400V0750D BCFG SCT006 07/07 Q1032 TEMPO 0500 FG
  • 220350Z 30001KT 3200 BR BKN007 07/07 Q1032 TEMPO 2500
  • 220320Z 31003KT 4000 BR BKN007 07/07 Q1032
  • 220250Z VRB01KT 4000 BR BKN007 07/07 Q1032

TAF TAF EDDW
Valido dal 22 a 06 ore il 23 a 06 ore UTC


220500Z 2206/2306 VRB02KT 2000 BR SCT010
TEMPO 2206/2208 0200 FG BKN003
BECMG 2208/2210 15005KT 9999
BECMG 2221/2224 VRB02KT
BECMG 2303/2306 26005KT
TEMPO 2303/2306 2000 BR
Nessun NOTAM noto per questo aeroporto.



MetMap, La meteo Aeronautica in un colpo d'occhio ! - Copyright ORBIFLY Dicembre 2007 - Disclaimer

ORBIFLY MET'MAP TEAM :

Programmazione e sviluppo : Alexandra Zaïnal
Concezione e sviluppo : Baudouin d'Aumeries
Co-Programmazione e sviluppo : Marc-Olivier Méhu
Supporto tecnico e logistico : Manuel Goepfert
Aiuto per la traduzione : Arnaldo La Scala

Contatto : metmap@orbifly.com




FONTI E CREDITI :

   NOAA